Dallas, Texas
Current Conditions -  °F | °C
As of 6:53 AM on Wednesday 26 Nov 2014 (Local Time) from KDAL Reporting Station
Broken Clouds Broken Clouds  
Wind Chill: 43°   Ceiling: 30000
Heat Index: 45°   Visibility: 10mi
Dew Point: 31°   Wind: 5mph
Humidity: 58%   Direction: 240°WSW
Pressure: 30.07"   Gusts: NA
Location:  32.78°N, 96.79°W
Report Text: KDAL 261253Z 24004KT 10SM BKN300 07/M01 A3007 RMK AO2 SLP181 T00721006
Loading
Personal Weather Stations






























Interactive Weather Map New forecast layout! Learn more

10-Day Weather Forecast

Advertisements
Track Severe Weather on mobile